Time;durP1;ratioP1;P1;durP2;ratioP2;P2;SDS_P1;SDS_P2;PMS_P1;PMS_P2;Temp;Humidity;BMP_temperature;BMP_pressure;BME280_temperature;BME280_humidity;BME280_pressure;Samples;Min_cycle;Max_cycle;Signal;HPM_P1;HPM_P2
2021/04/16 00:02:14;;;;;;;15.17;7.10;;;5.90;99.90;;;;;;4971956;28;20187;-75
2021/04/16 00:04:39;;;;;;;16.60;7.17;;;5.90;99.90;;;;;;4969540;28;20241;-75
2021/04/16 00:07:05;;;;;;;15.03;6.77;;;6.00;99.90;;;;;;4971285;28;20229;-75
2021/04/16 00:09:31;;;;;;;17.63;7.63;;;6.10;99.90;;;;;;4970977;28;20193;-76
2021/04/16 00:11:57;;;;;;;14.57;6.93;;;6.10;99.90;;;;;;4971254;28;20225;-75
2021/04/16 00:14:22;;;;;;;13.90;6.70;;;6.00;99.90;;;;;;4969607;28;20195;-76
2021/04/16 00:16:48;;;;;;;15.10;6.50;;;6.10;99.90;;;;;;4971084;28;20186;-75
2021/04/16 00:19:14;;;;;;;13.00;6.70;;;6.00;99.90;;;;;;4970082;28;20566;-75
2021/04/16 00:21:40;;;;;;;13.00;6.20;;;5.90;99.90;;;;;;4970388;28;20686;-75
2021/04/16 00:24:11;;;;;;;15.43;6.90;;;6.00;99.90;;;;;;4970682;28;20191;-76
2021/04/16 00:26:38;;;;;;;14.20;6.83;;;5.90;99.90;;;;;;5001141;28;20210;-75
2021/04/16 00:29:04;;;;;;;14.20;6.57;;;5.60;99.90;;;;;;4969774;28;20198;-75
2021/04/16 00:31:32;;;;;;;13.17;6.47;;;5.70;99.90;;;;;;4969372;28;20659;-76
2021/04/16 00:34:00;;;;;;;15.13;6.80;;;5.70;99.90;;;;;;4970984;28;20243;-75
2021/04/16 00:36:28;;;;;;;12.30;6.50;;;5.70;99.90;;;;;;4971136;28;20195;-75
2021/04/16 00:38:54;;;;;;;17.57;7.20;;;5.50;99.90;;;;;;4968510;28;20188;-75
2021/04/16 00:41:23;;;;;;;18.17;7.13;;;5.40;99.90;;;;;;4970639;28;20209;-75
2021/04/16 00:43:49;;;;;;;14.33;7.33;;;5.60;99.90;;;;;;4968095;28;20242;-75
2021/04/16 00:46:20;;;;;;;13.07;6.47;;;5.70;99.90;;;;;;4970346;28;20669;-75
2021/04/16 00:48:53;;;;;;;15.97;7.67;;;5.70;99.90;;;;;;4985967;28;20708;-75
2021/04/16 00:51:26;;;;;;;16.67;6.93;;;5.90;99.90;;;;;;4969172;28;20582;-75
2021/04/16 00:53:53;;;;;;;17.37;6.90;;;5.90;99.90;;;;;;4971274;28;20208;-75
2021/04/16 00:56:19;;;;;;;16.80;7.27;;;6.00;99.90;;;;;;4968525;28;20199;-75
2021/04/16 00:58:45;;;;;;;13.10;6.60;;;6.00;99.90;;;;;;4971618;28;20228;-75
2021/04/16 01:01:11;;;;;;;16.00;6.67;;;5.90;99.90;;;;;;4971451;28;20184;-75
2021/04/16 01:03:36;;;;;;;13.97;6.30;;;5.80;99.90;;;;;;5001645;28;20195;-75
2021/04/16 01:06:05;;;;;;;14.87;6.90;;;5.80;99.90;;;;;;4970754;28;20661;-76
2021/04/16 01:08:33;;;;;;;16.80;6.77;;;5.80;99.90;;;;;;5001903;28;20252;-75
2021/04/16 01:10:59;;;;;;;12.57;6.63;;;5.80;99.90;;;;;;4970354;28;20187;-75
2021/04/16 01:13:25;;;;;;;12.63;6.57;;;5.80;99.90;;;;;;4970243;28;20203;-75
2021/04/16 01:15:57;;;;;;;14.10;7.13;;;5.60;99.90;;;;;;4970376;28;20773;-76
2021/04/16 01:18:27;;;;;;;13.50;6.73;;;5.60;99.90;;;;;;4971614;28;20665;-75
2021/04/16 01:20:56;;;;;;;15.60;6.87;;;5.60;99.90;;;;;;5001046;28;20199;-76
2021/04/16 01:23:57;;;;;;;15.17;6.97;;;5.60;99.90;;;;;;4970174;28;20657;-75
2021/04/16 01:26:31;;;;;;;14.30;6.90;;;5.70;99.90;;;;;;4968902;28;20610;-75
2021/04/16 01:28:57;;;;;;;14.70;7.03;;;5.70;99.90;;;;;;4970826;28;20192;-76
2021/04/16 01:31:26;;;;;;;15.53;7.27;;;5.70;99.90;;;;;;4971337;28;20656;-76
2021/04/16 01:33:53;;;;;;;14.20;7.57;;;5.50;99.90;;;;;;4971523;28;20237;-76
2021/04/16 01:36:26;;;;;;;12.17;6.87;;;5.50;99.90;;;;;;4975908;28;20669;-76
2021/04/16 01:38:54;;;;;;;15.10;7.20;;;5.60;99.90;;;;;;4973161;28;20199;-76
2021/04/16 01:41:20;;;;;;;15.43;7.10;;;5.70;99.90;;;;;;4974364;28;20218;-75
2021/04/16 01:43:55;;;;;;;13.93;7.43;;;5.70;99.90;;;;;;4971744;28;20548;-75
2021/04/16 01:46:21;;;;;;;14.83;7.53;;;5.70;99.90;;;;;;4970714;28;20225;-75
2021/04/16 01:48:53;;;;;;;13.57;7.27;;;5.80;99.90;;;;;;4973203;28;20180;-75
2021/04/16 01:51:32;;;;;;;12.57;6.97;;;5.70;99.90;;;;;;5005516;28;20179;-75
2021/04/16 01:54:07;;;;;;;15.77;6.93;;;5.60;99.90;;;;;;4971967;28;20182;-75
2021/04/16 01:56:33;;;;;;;14.10;8.23;;;5.60;99.90;;;;;;4974408;28;20187;-75
2021/04/16 01:58:58;;;;;;;16.53;8.10;;;5.50;99.90;;;;;;4973148;28;20202;-75
2021/04/16 02:01:24;;;;;;;15.03;7.00;;;5.60;99.90;;;;;;4972160;28;20190;-75
2021/04/16 02:03:51;;;;;;;14.77;7.53;;;5.50;99.90;;;;;;5003266;28;20225;-75
2021/04/16 02:06:16;;;;;;;15.40;7.30;;;5.50;99.90;;;;;;4972869;28;20801;-76
2021/04/16 02:08:42;;;;;;;14.67;8.00;;;5.40;99.90;;;;;;4974107;28;20584;-75
2021/04/16 02:11:08;;;;;;;15.43;7.80;;;5.40;99.90;;;;;;4973404;28;20655;-75
2021/04/16 02:13:33;;;;;;;13.70;7.83;;;5.50;99.90;;;;;;4973389;28;20216;-74
2021/04/16 02:15:59;;;;;;;13.77;7.30;;;5.40;99.90;;;;;;4974380;28;20634;-75
2021/04/16 02:18:25;;;;;;;15.53;7.60;;;5.20;99.90;;;;;;4972522;28;20191;-75
2021/04/16 02:20:50;;;;;;;13.97;7.50;;;5.00;99.90;;;;;;4973443;28;20187;-75
2021/04/16 02:23:16;;;;;;;15.03;7.90;;;4.90;99.90;;;;;;4972488;28;20199;-75
2021/04/16 02:25:41;;;;;;;14.23;7.73;;;5.00;99.90;;;;;;4973499;28;20225;-76
2021/04/16 02:28:07;;;;;;;14.33;7.60;;;5.00;99.90;;;;;;4973286;28;20532;-75
2021/04/16 02:30:35;;;;;;;14.67;7.57;;;4.90;99.90;;;;;;4972475;28;20724;-75
2021/04/16 02:33:01;;;;;;;18.13;8.20;;;4.80;99.90;;;;;;4973344;28;20182;-76
2021/04/16 02:35:28;;;;;;;16.77;7.97;;;4.70;99.90;;;;;;4974001;28;20247;-76
2021/04/16 02:37:54;;;;;;;17.53;8.53;;;4.70;99.90;;;;;;4970951;28;20214;-75
2021/04/16 02:40:24;;;;;;;14.17;8.23;;;4.80;99.90;;;;;;4973024;28;20191;-75
2021/04/16 02:42:52;;;;;;;17.03;8.50;;;4.80;99.90;;;;;;4987113;28;20220;-75
2021/04/16 02:45:21;;;;;;;18.27;8.40;;;4.80;99.90;;;;;;4972394;28;20310;-75
2021/04/16 02:47:47;;;;;;;17.50;8.80;;;4.80;99.90;;;;;;4969771;28;20198;-75
2021/04/16 02:50:17;;;;;;;14.97;8.37;;;4.70;99.90;;;;;;5004172;28;20183;-75
2021/04/16 02:52:43;;;;;;;16.30;8.00;;;4.70;99.90;;;;;;5003280;28;20190;-75
2021/04/16 02:55:10;;;;;;;19.80;8.63;;;4.70;99.90;;;;;;4969648;28;20187;-75
2021/04/16 02:57:36;;;;;;;17.13;8.23;;;4.80;99.90;;;;;;4974728;28;20193;-76
2021/04/16 03:00:05;;;;;;;16.33;7.90;;;4.80;99.90;;;;;;4971505;28;20268;-75
2021/04/16 03:02:31;;;;;;;17.80;8.03;;;4.70;99.90;;;;;;4973363;28;20186;-76
2021/04/16 03:04:56;;;;;;;17.30;8.63;;;4.70;99.90;;;;;;4971084;28;20206;-76
2021/04/16 03:07:22;;;;;;;15.43;8.10;;;4.80;99.90;;;;;;4972337;28;20213;-76
2021/04/16 03:09:47;;;;;;;15.30;8.17;;;4.70;99.90;;;;;;4973094;28;20208;-75
2021/04/16 03:12:13;;;;;;;16.93;7.90;;;4.70;99.90;;;;;;4971110;28;20221;-75
2021/04/16 03:14:39;;;;;;;16.97;8.37;;;4.70;99.90;;;;;;5003213;28;20322;-75
2021/04/16 03:17:04;;;;;;;19.40;8.50;;;4.70;99.90;;;;;;4971267;28;20195;-75
2021/04/16 03:19:30;;;;;;;14.20;8.73;;;4.60;99.90;;;;;;4971464;28;20190;-75
2021/04/16 03:21:56;;;;;;;15.60;8.70;;;4.80;99.90;;;;;;4974548;28;20210;-75
2021/04/16 03:24:21;;;;;;;18.40;9.40;;;4.80;99.90;;;;;;4971839;28;20292;-75
2021/04/16 03:26:47;;;;;;;16.67;8.63;;;4.70;99.90;;;;;;5003838;28;20237;-75
2021/04/16 03:29:13;;;;;;;17.03;8.77;;;4.70;99.90;;;;;;4971775;28;20226;-75
2021/04/16 03:31:38;;;;;;;17.10;9.00;;;4.50;99.90;;;;;;5002812;28;20213;-75
2021/04/16 03:34:04;;;;;;;16.63;8.73;;;4.40;99.90;;;;;;4973454;28;20217;-75
2021/04/16 03:36:30;;;;;;;15.13;9.07;;;4.50;99.90;;;;;;4970184;28;20186;-75
2021/04/16 03:38:57;;;;;;;17.80;9.07;;;4.40;99.90;;;;;;5005008;28;20673;-76
2021/04/16 03:41:23;;;;;;;22.63;9.67;;;4.40;99.90;;;;;;4970048;28;20303;-75
2021/04/16 03:43:48;;;;;;;18.20;8.67;;;4.50;99.90;;;;;;4969914;28;20194;-75
2021/04/16 03:46:14;;;;;;;15.47;8.57;;;4.40;99.90;;;;;;5006142;28;20206;-76
2021/04/16 03:48:40;;;;;;;19.63;9.03;;;4.30;99.90;;;;;;4972334;28;20225;-76
2021/04/16 03:51:07;;;;;;;17.37;9.30;;;4.30;99.90;;;;;;4972453;28;20178;-76
2021/04/16 03:53:33;;;;;;;17.27;9.13;;;4.30;99.90;;;;;;5002029;28;20683;-76
2021/04/16 03:55:58;;;;;;;16.90;9.77;;;4.20;99.90;;;;;;4970404;28;20695;-76
2021/04/16 03:58:24;;;;;;;18.53;8.73;;;4.30;99.90;;;;;;4972123;28;20217;-74
2021/04/16 04:00:50;;;;;;;17.27;8.83;;;4.30;99.90;;;;;;5003537;28;20191;-75
2021/04/16 04:03:15;;;;;;;15.70;8.97;;;4.40;99.90;;;;;;4972404;28;20204;-75
2021/04/16 04:05:41;;;;;;;25.80;9.53;;;4.30;99.90;;;;;;4985528;28;20235;-75
2021/04/16 04:08:08;;;;;;;18.80;9.17;;;4.30;99.90;;;;;;4971147;28;20187;-75
2021/04/16 04:10:38;;;;;;;19.20;9.40;;;4.30;99.90;;;;;;5002732;28;20183;-74
2021/04/16 04:13:09;;;;;;;18.00;9.17;;;4.30;99.90;;;;;;4970603;28;20183;-75
2021/04/16 04:15:35;;;;;;;19.63;10.10;;;4.20;99.90;;;;;;4971258;28;20319;-74
2021/04/16 04:18:02;;;;;;;22.50;11.20;;;4.20;99.90;;;;;;4969911;28;20197;-75
2021/04/16 04:20:31;;;;;;;20.23;9.93;;;4.10;99.90;;;;;;5002562;28;20191;-74
2021/04/16 04:22:58;;;;;;;18.40;9.90;;;4.10;99.90;;;;;;4967063;28;20198;-74
2021/04/16 04:25:27;;;;;;;19.67;9.77;;;4.00;99.90;;;;;;4970355;28;20241;-74
2021/04/16 04:27:54;;;;;;;20.70;9.70;;;4.00;99.90;;;;;;4969439;28;20179;-74
2021/04/16 04:30:24;;;;;;;19.27;10.37;;;3.90;99.90;;;;;;5001074;28;20579;-74
2021/04/16 04:32:50;;;;;;;22.00;10.97;;;3.90;99.90;;;;;;4968637;28;20181;-75
2021/04/16 04:35:16;;;;;;;21.23;10.47;;;3.90;99.90;;;;;;4969768;28;20229;-75
2021/04/16 04:37:42;;;;;;;20.37;11.30;;;3.80;99.90;;;;;;4971201;28;20592;-74
2021/04/16 04:40:09;;;;;;;16.53;9.80;;;3.80;99.90;;;;;;5001205;28;20200;-74
2021/04/16 04:42:34;;;;;;;20.43;10.33;;;3.70;99.90;;;;;;4970252;28;20212;-74
2021/04/16 04:45:00;;;;;;;22.60;10.67;;;3.50;99.90;;;;;;4969957;28;20224;-74
2021/04/16 04:47:26;;;;;;;19.53;10.43;;;3.50;99.90;;;;;;4968879;28;20602;-74
2021/04/16 04:49:52;;;;;;;23.90;10.23;;;3.50;99.90;;;;;;5002923;28;20300;-75
2021/04/16 04:52:22;;;;;;;17.20;9.50;;;3.40;99.90;;;;;;4970317;28;20634;-74
2021/04/16 04:54:50;;;;;;;22.07;10.53;;;3.50;99.90;;;;;;4971655;28;20177;-74
2021/04/16 04:57:17;;;;;;;18.37;9.30;;;3.50;99.90;;;;;;4970716;28;20195;-75
2021/04/16 04:59:43;;;;;;;17.73;9.87;;;3.50;99.90;;;;;;4969200;28;20215;-75
2021/04/16 05:02:12;;;;;;;21.70;10.30;;;3.50;99.90;;;;;;4971245;28;20191;-74
2021/04/16 05:04:38;;;;;;;19.03;10.10;;;3.70;99.90;;;;;;4969356;28;20613;-75
2021/04/16 05:07:04;;;;;;;19.83;9.83;;;3.60;99.90;;;;;;4972682;28;20210;-75
2021/04/16 05:09:30;;;;;;;18.37;9.80;;;3.70;99.90;;;;;;4972584;28;20638;-75
2021/04/16 05:11:55;;;;;;;17.03;9.20;;;3.80;99.90;;;;;;4972518;28;20205;-74
2021/04/16 05:14:21;;;;;;;18.30;9.60;;;3.80;99.90;;;;;;5005900;28;20230;-74
2021/04/16 05:16:47;;;;;;;18.40;9.57;;;3.80;99.90;;;;;;4973575;28;21295;-75
2021/04/16 05:19:12;;;;;;;20.07;9.87;;;3.80;99.90;;;;;;4973304;28;20586;-74
2021/04/16 05:21:39;;;;;;;16.93;9.83;;;3.80;99.90;;;;;;4973786;28;20703;-75
2021/04/16 05:24:07;;;;;;;19.00;9.83;;;3.90;99.90;;;;;;4974123;28;20195;-75
2021/04/16 05:26:34;;;;;;;18.50;10.10;;;3.90;99.90;;;;;;4987725;28;20210;-75
2021/04/16 05:29:00;;;;;;;18.43;9.50;;;4.00;99.90;;;;;;4972530;28;20201;-76
2021/04/16 05:31:26;;;;;;;17.30;9.20;;;4.10;99.90;;;;;;5001021;28;20692;-75
2021/04/16 05:33:51;;;;;;;23.77;10.13;;;4.20;99.90;;;;;;4973122;28;20219;-75
2021/04/16 05:36:17;;;;;;;18.93;8.93;;;4.40;99.90;;;;;;4973180;28;20652;-75
2021/04/16 05:38:43;;;;;;;17.37;8.80;;;5.10;99.90;;;;;;4971651;28;20194;-75
2021/04/16 05:41:08;;;;;;;18.70;9.03;;;5.60;99.90;;;;;;4972397;28;20575;-73
2021/04/16 05:43:34;;;;;;;24.03;9.67;;;6.10;99.90;;;;;;4971787;28;20552;-74
2021/04/16 05:45:59;;;;;;;18.23;9.40;;;6.50;99.90;;;;;;4984481;28;20214;-74
2021/04/16 05:48:25;;;;;;;18.43;9.17;;;6.70;99.90;;;;;;5002499;28;20197;-74
2021/04/16 05:50:51;;;;;;;17.90;9.03;;;7.10;99.90;;;;;;4965890;28;20235;-74
2021/04/16 05:53:16;;;;;;;21.30;9.00;;;7.40;99.90;;;;;;4966511;28;20215;-74
2021/04/16 05:55:42;;;;;;;21.50;9.20;;;7.50;99.90;;;;;;4967036;28;20186;-74
2021/04/16 05:58:08;;;;;;;17.80;8.60;;;7.70;99.90;;;;;;4970843;28;20580;-75
2021/04/16 06:00:34;;;;;;;18.23;8.47;;;8.10;99.90;;;;;;4972983;28;20235;-74
2021/04/16 06:03:00;;;;;;;17.13;7.90;;;8.50;99.90;;;;;;4972147;28;20205;-75
2021/04/16 06:05:25;;;;;;;15.17;8.30;;;9.20;99.90;;;;;;4973141;28;20219;-75
2021/04/16 06:07:54;;;;;;;19.73;8.17;;;9.80;99.90;;;;;;4974406;28;20272;-75
2021/04/16 06:10:21;;;;;;;16.23;7.63;;;10.30;99.90;;;;;;4988021;28;20184;-74
2021/04/16 06:12:46;;;;;;;18.50;7.37;;;10.90;99.90;;;;;;4972126;28;20200;-74
2021/04/16 06:15:25;;;;;;;22.63;7.77;;;11.50;99.90;;;;;;4972422;28;20187;-74
2021/04/16 06:17:50;;;;;;;17.47;7.63;;;12.10;99.90;;;;;;4971981;28;20616;-74
2021/04/16 06:20:20;;;;;;;16.90;7.90;;;12.70;99.90;;;;;;4970521;28;20230;-73
2021/04/16 06:22:47;;;;;;;31.47;8.47;;;13.30;99.90;;;;;;4972994;28;20658;-73
2021/04/16 06:25:16;;;;;;;19.63;7.30;;;13.70;99.90;;;;;;4971194;28;20281;-74
2021/04/16 06:27:42;;;;;;;23.03;7.07;;;13.70;99.90;;;;;;4972166;28;20205;-73
2021/04/16 06:30:10;;;;;;;24.17;7.53;;;14.10;99.90;;;;;;4972849;28;20550;-73
2021/04/16 06:32:36;;;;;;;17.63;6.87;;;14.60;99.00;;;;;;4970949;28;20188;-73
2021/04/16 06:35:03;;;;;;;18.67;7.10;;;15.00;96.60;;;;;;4973454;28;20720;-73
2021/04/16 06:37:29;;;;;;;17.90;6.80;;;15.50;95.20;;;;;;4971530;28;20189;-74
2021/04/16 06:39:54;;;;;;;10.57;5.93;;;16.30;93.70;;;;;;4972881;28;20210;-73
2021/04/16 06:42:30;;;;;;;17.87;6.33;;;16.70;91.10;;;;;;4971047;28;20183;-73
2021/04/16 06:45:00;;;;;;;13.53;6.27;;;17.20;89.10;;;;;;4969196;28;20198;-73
2021/04/16 06:48:02;;;;;;;17.90;6.20;;;17.80;87.10;;;;;;4970700;28;20187;-73
2021/04/16 06:50:31;;;;;;;12.20;5.40;;;18.50;82.70;;;;;;4990085;28;20225;-73
2021/04/16 06:53:08;;;;;;;14.90;6.00;;;17.80;80.70;;;;;;4975293;28;20580;-73
2021/04/16 06:55:52;;;;;;;12.30;5.83;;;18.50;78.40;;;;;;4971252;28;20197;-73
2021/04/16 06:58:24;;;;;;;11.47;6.00;;;18.80;77.30;;;;;;4971638;28;20208;-73
2021/04/16 07:01:24;;;;;;;11.50;5.60;;;19.10;75.70;;;;;;4969907;28;20542;-73
2021/04/16 07:04:13;;;;;;;11.07;4.70;;;19.40;74.00;;;;;;4967933;28;20191;-73
2021/04/16 07:06:38;;;;;;;11.30;5.40;;;19.10;74.00;;;;;;4998398;28;20246;-73
2021/04/16 07:09:16;;;;;;;10.77;4.90;;;19.80;71.10;;;;;;4971969;28;20230;-73
2021/04/16 07:12:03;;;;;;;10.30;4.63;;;19.70;68.60;;;;;;4970834;28;20257;-73
2021/04/16 07:14:40;;;;;;;10.13;4.77;;;20.00;68.00;;;;;;4969587;28;20199;-73
2021/04/16 07:17:09;;;;;;;13.67;4.80;;;20.00;65.70;;;;;;4970158;28;20671;-73
2021/04/16 07:19:35;;;;;;;12.63;4.73;;;20.50;65.80;;;;;;4966662;28;20292;-73
2021/04/16 07:22:08;;;;;;;9.53;4.30;;;21.30;63.50;;;;;;4998238;28;20207;-73
2021/04/16 07:24:34;;;;;;;12.43;5.00;;;20.60;61.40;;;;;;4964864;28;20246;-74
2021/04/16 07:27:18;;;;;;;14.90;5.47;;;19.70;63.50;;;;;;4970620;28;20201;-73
2021/04/16 07:29:52;;;;;;;12.37;5.20;;;18.20;66.60;;;;;;4983477;28;20210;-74
2021/04/16 07:32:29;;;;;;;10.70;5.70;;;18.10;67.20;;;;;;4973552;28;21028;-74
2021/04/16 07:34:59;;;;;;;14.33;5.57;;;18.10;68.70;;;;;;4968626;28;20226;-74
2021/04/16 07:37:43;;;;;;;11.73;6.00;;;18.20;67.40;;;;;;5000280;28;20683;-74
2021/04/16 07:40:22;;;;;;;15.87;6.03;;;18.00;67.90;;;;;;4971481;28;20645;-74
2021/04/16 07:42:49;;;;;;;17.07;5.80;;;16.80;69.90;;;;;;4988573;28;21041;-73
2021/04/16 07:45:18;;;;;;;13.20;5.60;;;15.50;72.30;;;;;;4969229;28;20203;-73
2021/04/16 07:47:45;;;;;;;12.40;5.80;;;14.50;77.00;;;;;;4970480;28;20204;-75
2021/04/16 07:50:31;;;;;;;15.60;5.80;;;13.60;78.50;;;;;;5001419;28;20175;-73
2021/04/16 07:52:58;;;;;;;10.57;5.67;;;13.40;80.20;;;;;;4971680;28;20183;-73
2021/04/16 07:55:25;;;;;;;12.90;5.90;;;13.10;81.90;;;;;;4969526;28;20255;-73
2021/04/16 07:57:51;;;;;;;16.30;6.57;;;12.80;84.50;;;;;;4986229;28;20230;-74
2021/04/16 08:00:22;;;;;;;13.80;6.30;;;12.80;84.60;;;;;;4970403;28;20196;-74
2021/04/16 08:03:06;;;;;;;13.10;5.80;;;13.20;84.10;;;;;;4969418;28;21057;-74
2021/04/16 08:05:39;;;;;;;15.63;6.33;;;13.20;83.00;;;;;;4969928;28;20225;-74
2021/04/16 08:08:32;;;;;;;19.10;6.53;;;13.30;85.30;;;;;;5000387;28;20209;-74
2021/04/16 08:11:00;;;;;;;13.27;6.13;;;13.50;84.50;;;;;;4970475;28;20205;-74
2021/04/16 08:13:35;;;;;;;14.33;5.80;;;13.10;85.10;;;;;;4969896;28;20553;-73
2021/04/16 08:16:14;;;;;;;16.07;5.57;;;13.20;83.50;;;;;;5001984;28;20199;-74
2021/04/16 08:18:41;;;;;;;14.30;5.40;;;13.10;83.30;;;;;;4983219;28;20210;-74
2021/04/16 08:21:18;;;;;;;13.30;5.40;;;12.80;84.40;;;;;;4970782;28;20218;-73
2021/04/16 08:23:59;;;;;;;11.93;5.33;;;12.30;87.50;;;;;;5000343;28;20211;-74
2021/04/16 08:26:32;;;;;;;11.77;4.77;;;12.80;87.90;;;;;;4970066;28;20554;-74
2021/04/16 08:29:23;;;;;;;14.40;5.40;;;13.30;86.70;;;;;;4995588;28;20196;-73
2021/04/16 08:32:05;;;;;;;9.90;4.73;;;13.50;86.50;;;;;;4970217;28;20612;-74
2021/04/16 08:34:43;;;;;;;10.10;4.73;;;13.20;84.50;;;;;;4970377;28;20227;-74
2021/04/16 08:37:15;;;;;;;12.50;4.87;;;13.00;86.70;;;;;;5001665;28;20191;-74
2021/04/16 08:39:44;;;;;;;10.60;4.83;;;12.50;86.40;;;;;;4974058;28;20254;-74
2021/04/16 08:42:21;;;;;;;10.27;4.80;;;12.20;87.70;;;;;;4969058;28;20241;-74
2021/04/16 08:44:51;;;;;;;11.83;4.60;;;12.00;90.50;;;;;;5008992;28;20184;-74
2021/04/16 08:47:26;;;;;;;11.17;4.57;;;11.90;90.40;;;;;;4969076;28;20274;-74
2021/04/16 08:49:54;;;;;;;10.63;4.53;;;12.30;90.60;;;;;;4969446;28;20190;-74
2021/04/16 08:52:29;;;;;;;12.63;4.53;;;12.80;90.60;;;;;;4972406;28;20270;-75
2021/04/16 08:55:06;;;;;;;10.97;4.60;;;13.60;87.80;;;;;;4969791;28;20230;-74
2021/04/16 08:57:40;;;;;;;11.10;4.20;;;13.90;87.00;;;;;;4968739;28;20224;-75
2021/04/16 09:00:15;;;;;;;10.57;4.63;;;14.60;83.50;;;;;;5001472;28;20643;-74
2021/04/16 09:02:48;;;;;;;9.53;4.37;;;15.60;80.90;;;;;;4969974;28;20187;-75
2021/04/16 09:05:22;;;;;;;11.47;4.27;;;16.20;82.80;;;;;;4968894;28;20290;-75
2021/04/16 09:08:07;;;;;;;10.93;4.57;;;17.80;76.10;;;;;;4970597;28;20205;-75
2021/04/16 09:10:48;;;;;;;11.30;4.47;;;17.50;73.10;;;;;;4998378;28;20201;-75
2021/04/16 09:13:39;;;;;;;10.53;4.50;;;16.80;74.40;;;;;;4988153;28;20615;-75
2021/04/16 09:16:14;;;;;;;11.83;4.90;;;16.00;75.00;;;;;;4972339;28;20250;-75
2021/04/16 09:18:44;;;;;;;11.63;4.63;;;15.20;75.60;;;;;;4968953;28;20298;-75
2021/04/16 09:21:19;;;;;;;11.50;4.10;;;15.10;77.00;;;;;;4999903;28;20196;-75
2021/04/16 09:23:46;;;;;;;9.83;4.80;;;14.80;79.30;;;;;;5001222;28;20198;-74
2021/04/16 09:26:46;;;;;;;12.23;4.20;;;14.90;77.50;;;;;;4999817;28;20204;-75
2021/04/16 09:29:27;;;;;;;10.63;4.40;;;15.20;77.10;;;;;;4999783;28;20187;-75
2021/04/16 09:31:59;;;;;;;10.73;4.70;;;15.90;75.00;;;;;;4970077;28;20172;-75
2021/04/16 09:34:49;;;;;;;13.57;4.97;;;16.40;73.90;;;;;;4983967;28;20283;-75
2021/04/16 09:37:39;;;;;;;13.37;5.00;;;16.90;73.90;;;;;;4970611;28;20213;-76
2021/04/16 09:40:27;;;;;;;12.90;4.97;;;16.80;71.80;;;;;;4967757;28;20813;-75
2021/04/16 09:42:55;;;;;;;14.03;4.47;;;16.20;72.80;;;;;;4970739;28;20211;-75
2021/04/16 09:45:30;;;;;;;9.43;4.27;;;16.40;74.10;;;;;;4967759;28;20700;-75
2021/04/16 09:48:02;;;;;;;9.87;4.10;;;16.40;71.20;;;;;;4968707;28;20622;-75
2021/04/16 09:51:08;;;;;;;10.47;3.50;;;16.30;71.10;;;;;;4970037;28;20222;-75
2021/04/16 09:53:35;;;;;;;11.00;4.33;;;16.40;70.60;;;;;;5004893;28;20197;-76
2021/04/16 09:56:01;;;;;;;9.53;3.67;;;16.80;70.90;;;;;;4980987;28;20197;-75
2021/04/16 09:58:32;;;;;;;9.17;3.97;;;17.90;66.40;;;;;;4971692;28;20233;-75
2021/04/16 10:00:57;;;;;;;11.13;4.10;;;18.20;65.30;;;;;;4973370;28;20610;-75
2021/04/16 10:03:32;;;;;;;13.00;4.33;;;18.80;67.00;;;;;;4972335;28;20202;-76
2021/04/16 10:05:58;;;;;;;9.90;4.07;;;19.30;63.10;;;;;;4973122;28;20217;-76
2021/04/16 10:08:28;;;;;;;9.67;3.77;;;19.40;63.20;;;;;;4974300;28;20270;-76
2021/04/16 10:11:04;;;;;;;6.80;3.07;;;18.90;63.70;;;;;;4970151;28;20202;-77
2021/04/16 10:13:34;;;;;;;6.77;3.53;;;18.40;62.30;;;;;;5006240;28;20187;-76
2021/04/16 10:16:14;;;;;;;11.37;3.37;;;17.60;61.50;;;;;;4971073;28;20201;-76
2021/04/16 10:18:40;;;;;;;6.87;3.47;;;17.10;62.30;;;;;;4972995;28;20193;-76
2021/04/16 10:21:19;;;;;;;8.23;3.87;;;17.20;64.20;;;;;;4988424;28;20274;-76
2021/04/16 10:23:49;;;;;;;7.20;3.10;;;18.00;65.10;;;;;;5003537;28;20217;-76
2021/04/16 10:27:44;;;;;;;6.70;3.23;;;18.10;62.10;;;;;;4972363;28;20227;-77
2021/04/16 11:20:46;;;;;;;4.83;2.53;;;17.40;59.50;;;;;;4973738;28;20269;-76
2021/04/16 11:24:06;;;;;;;6.43;2.50;;;17.50;58.90;;;;;;5001809;28;20607;-76
2021/04/16 12:39:34;;;;;;;8.37;2.80;;;13.90;61.70;;;;;;4969826;28;20307;-76
2021/04/16 12:42:02;;;;;;;7.23;2.87;;;14.10;60.70;;;;;;4971113;28;20193;-76
2021/04/16 12:44:44;;;;;;;6.60;2.77;;;13.90;60.20;;;;;;4970340;28;20283;-76
2021/04/16 12:47:13;;;;;;;4.97;2.77;;;13.50;61.70;;;;;;5003230;28;20199;-76
2021/04/16 12:49:39;;;;;;;6.37;3.20;;;13.40;60.70;;;;;;4968398;28;20184;-76
2021/04/16 12:52:06;;;;;;;5.50;2.47;;;13.60;62.00;;;;;;4975089;28;20196;-76
2021/04/16 12:54:40;;;;;;;6.47;2.90;;;13.80;61.40;;;;;;4970091;28;20196;-76
2021/04/16 12:57:09;;;;;;;7.43;2.90;;;13.90;62.30;;;;;;4974688;28;20183;-76
2021/04/16 12:59:37;;;;;;;7.00;3.10;;;14.10;62.20;;;;;;4970780;28;20334;-76
2021/04/16 13:02:04;;;;;;;5.93;2.67;;;13.70;62.20;;;;;;4970082;28;20215;-76
2021/04/16 13:04:36;;;;;;;6.70;3.10;;;13.20;63.30;;;;;;5001276;28;20196;-75
2021/04/16 13:07:03;;;;;;;5.97;3.10;;;13.20;63.90;;;;;;4970465;28;20214;-75
2021/04/16 13:09:28;;;;;;;6.97;2.90;;;13.30;63.90;;;;;;5002268;28;20267;-76
2021/04/16 13:11:54;;;;;;;7.20;3.30;;;13.40;63.50;;;;;;4971091;28;20291;-76
2021/04/16 13:14:20;;;;;;;7.57;3.20;;;13.60;63.50;;;;;;4971559;28;20813;-76
2021/04/16 13:16:46;;;;;;;7.87;3.10;;;13.60;65.30;;;;;;4987291;28;20196;-76
2021/04/16 13:19:30;;;;;;;7.93;3.13;;;13.90;63.20;;;;;;5001457;28;20193;-76
2021/04/16 13:22:02;;;;;;;7.57;2.97;;;14.20;66.10;;;;;;5003077;28;20183;-76
2021/04/16 13:24:28;;;;;;;7.03;2.80;;;14.30;66.70;;;;;;4968921;28;20740;-75
2021/04/16 13:26:53;;;;;;;6.07;2.80;;;14.50;62.70;;;;;;5001710;28;20234;-76
2021/04/16 13:29:19;;;;;;;5.83;2.80;;;14.60;64.40;;;;;;4972279;28;20749;-75
2021/04/16 13:31:45;;;;;;;6.10;3.13;;;14.60;61.80;;;;;;4974373;28;20190;-75
2021/04/16 13:34:11;;;;;;;8.13;2.63;;;14.50;62.10;;;;;;4978367;28;20240;-75
2021/04/16 13:36:37;;;;;;;6.50;3.10;;;14.20;61.70;;;;;;4974088;28;20637;-75
2021/04/16 13:39:05;;;;;;;7.63;3.03;;;14.00;61.80;;;;;;4974351;28;20201;-75
2021/04/16 13:41:31;;;;;;;5.20;2.80;;;14.00;61.30;;;;;;4974171;28;20198;-75
2021/04/16 13:43:58;;;;;;;13.50;5.87;;;14.20;63.40;;;;;;5005202;28;20201;-76
2021/04/16 13:46:28;;;;;;;5.50;2.67;;;14.30;61.90;;;;;;4974945;28;20691;-75
2021/04/16 13:48:55;;;;;;;5.13;2.50;;;14.30;60.80;;;;;;4974079;28;20183;-76
2021/04/16 13:51:22;;;;;;;6.90;3.10;;;14.10;61.40;;;;;;4974480;28;20207;-75
2021/04/16 13:53:48;;;;;;;7.33;3.10;;;13.90;63.00;;;;;;5005503;28;20185;-75
2021/04/16 13:56:14;;;;;;;8.33;3.23;;;14.00;62.50;;;;;;4973723;28;20859;-76
2021/04/16 13:58:40;;;;;;;5.57;2.80;;;13.90;61.40;;;;;;4974597;28;20211;-75
2021/04/16 14:01:09;;;;;;;6.20;2.77;;;14.10;62.70;;;;;;4973018;28;20743;-75
2021/04/16 14:03:36;;;;;;;5.83;2.70;;;14.10;61.30;;;;;;4974588;28;20685;-76
2021/04/16 14:06:11;;;;;;;5.83;2.80;;;14.30;62.40;;;;;;4973770;28;20263;-76
2021/04/16 14:08:40;;;;;;;12.63;5.43;;;14.20;61.30;;;;;;4973321;28;20197;-76
2021/04/16 14:11:07;;;;;;;7.97;2.87;;;14.40;64.20;;;;;;4973994;28;20235;-77
2021/04/16 14:13:34;;;;;;;5.97;2.67;;;14.50;62.10;;;;;;4973371;28;20186;-76
2021/04/16 14:16:09;;;;;;;8.37;3.43;;;14.60;60.40;;;;;;4974902;28;20314;-76
2021/04/16 14:18:55;;;;;;;8.50;2.63;;;14.60;64.40;;;;;;4971771;28;20243;-77
2021/04/16 14:21:21;;;;;;;8.53;2.87;;;14.40;61.60;;;;;;4973829;28;20194;-76
2021/04/16 14:23:48;;;;;;;11.77;2.90;;;14.40;63.40;;;;;;4974045;28;20191;-77
2021/04/16 14:26:15;;;;;;;5.00;2.70;;;14.40;61.80;;;;;;4974156;28;20220;-76
2021/04/16 14:28:42;;;;;;;9.60;3.13;;;13.90;60.70;;;;;;4974199;28;20190;-76
2021/04/16 14:31:09;;;;;;;5.63;2.70;;;14.10;62.00;;;;;;4988268;28;20236;-76
2021/04/16 14:33:37;;;;;;;7.17;2.87;;;14.20;63.20;;;;;;4973959;28;20242;-76
2021/04/16 14:36:04;;;;;;;4.83;2.80;;;14.30;65.30;;;;;;4968535;28;20236;-76
2021/04/16 14:38:31;;;;;;;7.37;2.90;;;14.50;65.30;;;;;;4971720;28;20185;-77
2021/04/16 14:40:56;;;;;;;5.43;2.63;;;14.40;63.00;;;;;;4988369;28;20233;-77
2021/04/16 14:43:24;;;;;;;7.20;2.90;;;14.40;64.40;;;;;;4973199;28;20272;-77
2021/04/16 14:45:51;;;;;;;5.80;2.70;;;14.40;63.40;;;;;;4973943;28;20210;-77
2021/04/16 14:48:19;;;;;;;6.00;2.80;;;14.60;63.60;;;;;;5004011;28;20201;-77
2021/04/16 14:50:44;;;;;;;8.00;2.93;;;14.80;64.50;;;;;;4973151;28;20642;-77
2021/04/16 14:53:22;;;;;;;7.83;3.07;;;14.90;61.80;;;;;;4972474;28;20186;-76
2021/04/16 14:55:48;;;;;;;6.73;2.90;;;14.90;61.40;;;;;;4973196;28;20195;-77
2021/04/16 14:58:23;;;;;;;7.80;3.13;;;14.90;60.40;;;;;;5000906;28;20563;-76
2021/04/16 15:00:48;;;;;;;9.90;3.40;;;14.60;60.70;;;;;;4986544;28;20668;-76
2021/04/16 15:03:14;;;;;;;6.87;3.20;;;14.80;62.70;;;;;;4973050;28;20215;-77